x

Georgian Bay (45137) Wave Buoy

1:00am - Tue 2nd Sep 2014 All times are CDT. -5 hours from GMT.

  • Sig Wave height 2.3ft
  • Peak Period 4s
  • Wind
    13mph, 18mph gusts
  • Sea Temp 64°f
  • Air Temp 65°f
  • Sea Pressure 1006.8mb
  • Georgian Bay
  • Georgian Bay

More Historic Weather Station data

Upgrade to MSW Pro to gain access to the past 30 days of data for over 8000 Wavebouys and Weather Stations around the globe.

Join Pro

Comparision Forecast

View Surf forecast
   
Tue 09/02 1:00am 2.5ft 4s 13 18 mph 1006.8mb 64f 65f
12:00am 2.5ft 4s 16 18 mph 1006.7mb 64f 66f
Mon 09/01 11:00pm 2.5ft 4s 16 22 mph 1006.6mb 64f 66f
10:00pm 3.5ft 4s 16 18 mph 1006.4mb 64f 66f
9:00pm 3.5ft 5s 18 20 mph 1006.4mb 64f 66f
8:00pm 3.5ft 5s 22 27 mph 1005.6mb 64f 67f
7:00pm 2.5ft 4s 22 27 mph 1005mb 64f 69f
6:00pm 1.6ft 4s 20 25 mph 1005.1mb 64f 69f
5:00pm 1.6ft 4s 13 18 mph 1005.9mb 64f 69f
4:00pm 2ft 4s 13 18 mph 1006.4mb 64f 67f
3:00pm 1.6ft 4s 13 18 mph 1006.5mb 64f 67f
2:00pm 2ft 4s 13 16 mph 1007.3mb 64f 66f
1:00pm 2ft 4s 16 18 mph 1008.6mb 64f 66f
12:00pm 1.6ft 4s 13 16 mph 1009.6mb 64f 65f
11:00am 2ft 4s 13 16 mph 1010.2mb 64f 65f
10:00am 1.6ft 3s 13 16 mph 1010.9mb 63f 65f
9:00am 1.3ft 3s 16 18 mph 1011.3mb 63f 64f
8:00am 1ft 3s 13 16 mph 1011.6mb 63f 64f
7:00am 0.7ft 2s 11 13 mph 1012.4mb 63f 64f
6:00am 0.3ft 2s 11 13 mph 1013.1mb 63f 63f
5:00am 0.3ft 4s 9
mph
1013.4mb 63f 63f
4:00am 0.3ft 4s 7
mph
1013.5mb 63f 63f
3:00am 0.3ft 2s 2
mph
1014.3mb 63f 63f
2:00am 0.3ft 2s 4 7 mph 1014.3mb 63f 63f
1:00am 0.7ft 4s 4 7 mph 1013.9mb 63f 63f
12:00am 0.7ft 3s 4
mph
1014mb 63f 63f
Sun 08/31 11:00pm 0.7ft 3s 4 7 mph 1014mb 63f 62f
10:00pm 1ft 3s 7 9 mph 1013.8mb 63f 62f
9:00pm 1ft 3s 4 7 mph 1013.9mb 63f 63f
8:00pm 1.3ft 3s 9 11 mph 1014mb 63f 63f
7:00pm 1.6ft 4s 11 13 mph 1014mb 63f 63f
5:00pm 2.5ft 4s 13 18 mph 1013.5mb 64f 63f
4:00pm 3ft 4s 18 20 mph 1012.8mb 64f 63f
3:00pm 3.5ft 5s 18 22 mph 1012.6mb 64f 62f
2:00pm 3.5ft 5s 18 20 mph 1012.5mb 64f 62f
1:00pm 3.5ft 4s 22 25 mph 1012.2mb 64f 62f
12:00pm 3ft 5s 20 25 mph 1011.4mb 64f 62f
11:00am 3ft 4s 18 20 mph 1011.5mb 64f 63f
10:00am 2.5ft 4s 20 25 mph 1011.2mb 64f 63f
9:00am 2.5ft 4s 20 22 mph 1010.9mb 64f 63f
8:00am 2ft 4s 16 18 mph 1010.9mb 64f 63f
7:00am 2ft 4s 13 18 mph 1010.7mb 64f 64f
6:00am 2ft 4s 16 20 mph 1010mb 64f 64f
5:00am 2ft 4s 13
mph
1009.5mb 64f 65f
4:00am 2.5ft 4s 13 16 mph 1009.2mb 64f 65f
3:00am 2.5ft 4s 13 16 mph 1009.1mb 64f 66f
2:00am 2.5ft 4s 16 18 mph 1009.1mb 64f 66f
1:00am 2.5ft 4s 18 20 mph 1009mb 64f 67f
12:00am 2ft 4s 18 20 mph 1008.6mb 64f 67f
Sat 08/30 11:00pm 2ft 4s 9 11 mph 1008.7mb 64f 66f
10:00pm 1ft 3s 11 13 mph 1008.8mb 64f 67f
9:00pm 1ft 4s 7 11 mph 1009mb 64f 68f
8:00pm 1.3ft 4s 7 9 mph 1009mb 64f 67f
7:00pm 1.3ft 4s 7 9 mph 1009mb 64f 67f
6:00pm 1.6ft 4s 7 9 mph 1009.2mb 64f 66f
5:00pm 2ft 4s 9
mph
1009.5mb 64f 67f
4:00pm 2ft 4s 11 13 mph 1010mb 64f 66f
3:00pm 2ft 4s 11 13 mph 1010.1mb 64f 66f
2:00pm 2ft 4s 11 13 mph 1010.8mb 64f 67f
1:00pm 2.5ft 4s 7
mph
1011.8mb 64f 66f
12:00pm 2.5ft 4s 11
mph
1011.8mb 64f 66f
11:00am 2.5ft 4s 11 13 mph 1012mb 64f 67f
10:00am 2.5ft 4s 13 16 mph 1012.2mb 63f 66f
9:00am 2.5ft 4s 16 18 mph 1012.6mb 63f 67f
8:00am 2.5ft 5s 13 16 mph 1012.8mb 63f 65f
7:00am 3ft 5s 16 18 mph 1012.9mb 63f 65f
6:00am 2.5ft 5s 13 16 mph 1013.5mb 63f 65f
5:00am 2.5ft 5s 13 16 mph 1013.8mb 63f 65f
4:00am 2.5ft 5s 13 16 mph 1014.2mb 63f 65f
3:00am 2.5ft 5s 16 18 mph 1014.3mb 63f 65f
2:00am 2.5ft 4s 16 20 mph 1014.7mb 63f 65f
1:00am 2ft 4s 16 18 mph 1015.4mb 63f 65f
12:00am 2ft 4s 16 18 mph 1015.9mb 63f 65f
Fri 08/29 11:00pm 1.6ft 3s 16 18 mph 1016mb 63f 66f
10:00pm 1.6ft 3s 18 20 mph 1016.2mb 63f 66f
9:00pm 1.3ft 4s 16 18 mph 1016.3mb 63f 66f
8:00pm 1ft 4s 11 16 mph 1016.8mb 63f 65f
7:00pm 1ft 4s 9 11 mph 1017mb 63f 64f
6:00pm 1ft 4s 9 11 mph 1017.9mb 63f 64f
5:00pm 1.3ft 4s 9 11 mph 1018mb 64f 64f
4:00pm 1.3ft 4s 11 13 mph 1019mb 64f 64f
3:00pm 1.3ft 4s 9 11 mph 1019.6mb 63f 63f
2:00pm 1.6ft 4s 11 13 mph 1020.6mb 63f 63f
1:00pm 1.6ft 4s 11 13 mph 1021.2mb 63f 63f
12:00pm 1.6ft 3s 13 16 mph 1021mb 63f 63f
11:00am 1.6ft 3s 13 16 mph 1021.3mb 63f 63f
10:00am 1ft 3s 16 18 mph 1021.6mb 63f 62f
9:00am 1ft 2s 11 13 mph 1021.9mb 63f 62f
8:00am 0.7ft 2s 9 13 mph 1021.8mb 63f 62f